Time;durP1;ratioP1;P1;durP2;ratioP2;P2;SDS_P1;SDS_P2;PMS_P1;PMS_P2;Temp;Humidity;BMP_temperature;BMP_pressure;BME280_temperature;BME280_humidity;BME280_pressure;Samples;Min_cycle;Max_cycle;Signal;HPM_P1;HPM_P2
2022/02/08 00:02:24;;;;;;;17.67;10.27;;;9.30;99.90;;;;;;5111968;28;20077;-76
2022/02/08 00:04:50;;;;;;;23.60;10.43;;;9.30;99.90;;;;;;5113855;28;20111;-76
2022/02/08 00:07:16;;;;;;;14.57;9.32;;;9.30;99.90;;;;;;5115709;28;20057;-76
2022/02/08 00:09:42;;;;;;;17.63;9.85;;;9.40;99.90;;;;;;5120671;28;20028;-76
2022/02/08 00:12:08;;;;;;;19.48;11.18;;;9.40;99.90;;;;;;5120388;27;20027;-76
2022/02/08 00:14:34;;;;;;;18.95;10.43;;;9.50;99.90;;;;;;5120435;27;20036;-76
2022/02/08 00:16:59;;;;;;;20.30;11.25;;;9.60;99.90;;;;;;5120958;27;20024;-76
2022/02/08 00:19:25;;;;;;;17.60;9.90;;;9.60;99.90;;;;;;5120653;28;20035;-76
2022/02/08 00:21:51;;;;;;;17.83;9.40;;;9.70;99.90;;;;;;5120282;27;20028;-76
2022/02/08 00:24:17;;;;;;;17.95;10.48;;;9.60;99.90;;;;;;5120201;27;20389;-76
2022/02/08 00:26:43;;;;;;;20.33;10.38;;;9.70;99.90;;;;;;5120236;28;20023;-76
2022/02/08 00:29:08;;;;;;;24.42;9.68;;;9.60;99.90;;;;;;5120207;28;20023;-76
2022/02/08 00:31:34;;;;;;;19.08;9.38;;;9.60;99.90;;;;;;5120233;28;20019;-76
2022/02/08 00:34:00;;;;;;;33.42;10.38;;;9.60;99.90;;;;;;5120114;28;20034;-76
2022/02/08 00:36:25;;;;;;;17.23;9.18;;;9.50;99.90;;;;;;5120419;28;20023;-76
2022/02/08 00:38:52;;;;;;;22.20;10.07;;;9.50;99.90;;;;;;5120409;28;20036;-76
2022/02/08 00:41:18;;;;;;;15.73;9.00;;;9.60;99.90;;;;;;5120381;27;20020;-76
2022/02/08 00:43:52;;;;;;;17.08;9.68;;;9.60;99.90;;;;;;5119961;28;20088;-76
2022/02/08 00:46:35;;;;;;;15.48;9.35;;;9.60;99.90;;;;;;5120376;27;20022;-76
2022/02/08 00:49:03;;;;;;;20.45;8.77;;;9.60;99.90;;;;;;5118517;28;20027;-76
2022/02/08 00:51:39;;;;;;;19.33;8.93;;;9.60;99.90;;;;;;5118704;28;20016;-76
2022/02/08 00:54:05;;;;;;;20.60;9.55;;;9.50;99.90;;;;;;5119987;27;20032;-76
2022/02/08 00:56:30;;;;;;;17.42;9.63;;;9.60;99.90;;;;;;5120482;28;20080;-76
2022/02/08 00:58:56;;;;;;;17.05;9.43;;;9.50;99.90;;;;;;5120240;28;20110;-76
2022/02/08 01:01:21;;;;;;;19.55;8.80;;;9.60;99.90;;;;;;5120148;28;20393;-76
2022/02/08 01:03:47;;;;;;;13.75;8.73;;;9.60;99.90;;;;;;5119619;28;20050;-76
2022/02/08 01:06:13;;;;;;;12.68;8.13;;;9.60;99.90;;;;;;5119881;28;20477;-76
2022/02/08 01:08:40;;;;;;;13.95;8.32;;;9.60;99.90;;;;;;5120169;28;20461;-76
2022/02/08 01:11:09;;;;;;;17.13;9.07;;;9.60;99.90;;;;;;5120063;28;20422;-76
2022/02/08 01:13:37;;;;;;;14.45;9.05;;;9.60;99.90;;;;;;5119754;27;20473;-76
2022/02/08 01:16:03;;;;;;;15.68;8.32;;;9.70;99.90;;;;;;5119801;27;20023;-76
2022/02/08 01:18:31;;;;;;;16.48;9.05;;;9.70;99.90;;;;;;5118711;27;20024;-76
2022/02/08 01:20:56;;;;;;;17.40;9.55;;;9.70;99.90;;;;;;5116147;28;20023;-76
2022/02/08 01:23:22;;;;;;;14.90;8.82;;;9.80;99.90;;;;;;5116701;28;20027;-76
2022/02/08 01:25:52;;;;;;;13.60;8.18;;;9.80;99.90;;;;;;5116411;28;20051;-76
2022/02/08 01:28:38;;;;;;;12.57;7.75;;;9.80;99.90;;;;;;5117069;28;20043;-76
2022/02/08 01:31:07;;;;;;;14.05;8.73;;;9.70;99.90;;;;;;5116673;28;20044;-76
2022/02/08 01:39:40;;;;;;;20.98;9.40;;;9.80;99.90;;;;;;5116525;27;20504;-76
2022/02/08 01:47:42;;;;;;;12.32;7.95;;;9.70;99.90;;;;;;5112222;28;20088;-76
2022/02/08 01:50:11;;;;;;;15.35;8.20;;;9.80;99.90;;;;;;5114444;28;20486;-76
2022/02/08 01:52:38;;;;;;;13.50;7.27;;;9.80;99.90;;;;;;5115968;28;20027;-76
2022/02/08 01:55:05;;;;;;;15.05;8.18;;;9.80;99.90;;;;;;5114510;28;20439;-76
2022/02/08 01:57:31;;;;;;;16.98;8.20;;;9.80;99.90;;;;;;5115846;28;20018;-76
2022/02/08 01:59:57;;;;;;;11.80;7.10;;;9.80;99.90;;;;;;5115725;28;20024;-76
2022/02/08 02:02:23;;;;;;;13.10;8.32;;;9.80;99.90;;;;;;5115526;28;20102;-76
2022/02/08 02:04:49;;;;;;;18.83;9.90;;;9.90;99.90;;;;;;5115650;28;20028;-76
2022/02/08 02:07:18;;;;;;;13.48;8.43;;;9.80;99.90;;;;;;5115993;28;20023;-76
2022/02/08 02:09:47;;;;;;;16.85;9.40;;;9.80;99.90;;;;;;5115591;28;20444;-76
2022/02/08 02:12:13;;;;;;;20.17;9.48;;;9.80;99.90;;;;;;5115830;27;20026;-76
2022/02/08 02:14:40;;;;;;;15.90;9.25;;;9.80;99.90;;;;;;5115560;28;20392;-76
2022/02/08 02:17:08;;;;;;;16.40;9.38;;;9.80;99.90;;;;;;5115440;28;20031;-76
2022/02/08 02:19:35;;;;;;;15.20;8.25;;;9.80;99.90;;;;;;5115426;28;20023;-76
2022/02/08 02:22:03;;;;;;;15.02;8.90;;;9.80;99.90;;;;;;5115401;28;20103;-76
2022/02/08 02:24:29;;;;;;;12.48;8.20;;;9.80;99.90;;;;;;5115526;28;20483;-76
2022/02/08 02:26:59;;;;;;;11.52;6.93;;;9.80;99.90;;;;;;5115294;28;20016;-76
2022/02/08 02:29:26;;;;;;;;;;;9.80;99.90;;;;;;5115703;27;20035;-76
2022/02/08 02:31:52;;;;;;;11.95;6.93;;;9.90;99.90;;;;;;5114989;28;19912;-76
2022/02/08 02:34:19;;;;;;;10.68;6.50;;;9.80;99.90;;;;;;5115115;28;20027;-76
2022/02/08 02:36:46;;;;;;;10.73;6.30;;;9.70;99.90;;;;;;5115102;28;20110;-76
2022/02/08 02:39:13;;;;;;;11.00;6.50;;;9.80;99.90;;;;;;5115014;28;20030;-76
2022/02/08 02:41:43;;;;;;;12.38;6.60;;;9.80;99.90;;;;;;5115500;28;20073;-76
2022/02/08 02:44:12;;;;;;;12.45;7.10;;;9.70;99.90;;;;;;5115128;28;20458;-76
2022/02/08 02:46:38;;;;;;;13.90;7.97;;;9.80;99.90;;;;;;5114881;28;20026;-76
2022/02/08 02:49:05;;;;;;;12.80;7.43;;;9.80;99.90;;;;;;5115115;28;20015;-76
2022/02/08 02:51:33;;;;;;;12.52;7.35;;;9.80;99.90;;;;;;5114789;28;20019;-76
2022/02/08 02:53:59;;;;;;;13.95;8.93;;;9.80;99.90;;;;;;5114680;28;20024;-75
2022/02/08 02:56:25;;;;;;;12.77;7.50;;;9.90;99.90;;;;;;5114690;28;20043;-76
2022/02/08 02:58:58;;;;;;;14.15;8.13;;;9.90;99.90;;;;;;5114601;28;20442;-76
2022/02/08 03:01:36;;;;;;;12.18;6.88;;;9.90;99.90;;;;;;5113002;28;20043;-75
2022/02/08 03:17:39;;;;;;;12.15;7.32;;;9.90;99.90;;;;;;5114604;28;20038;-76
2022/02/08 03:20:06;;;;;;;11.23;6.88;;;9.90;99.90;;;;;;5114551;28;20023;-76
2022/02/08 03:22:31;;;;;;;14.55;8.23;;;9.90;99.90;;;;;;5114489;28;20424;-76
2022/02/08 03:24:57;;;;;;;12.75;7.65;;;9.90;99.90;;;;;;5114047;28;20027;-76
2022/02/08 03:27:23;;;;;;;12.60;7.70;;;9.90;99.90;;;;;;5114629;28;20023;-75
2022/02/08 03:29:48;;;;;;;12.93;7.78;;;9.90;99.90;;;;;;5114072;28;20078;-76
2022/02/08 03:32:17;;;;;;;14.10;8.52;;;9.90;99.90;;;;;;5114301;28;20027;-76
2022/02/08 03:34:43;;;;;;;13.60;8.27;;;9.80;99.90;;;;;;5114316;28;20053;-76
2022/02/08 03:37:09;;;;;;;14.15;8.00;;;9.90;99.90;;;;;;5113987;28;20066;-76
2022/02/08 03:39:38;;;;;;;13.13;8.05;;;9.90;99.90;;;;;;5114236;28;20016;-76
2022/02/08 03:42:29;;;;;;;12.85;8.48;;;9.90;99.90;;;;;;5112094;28;20489;-76
2022/02/08 03:44:55;;;;;;;13.63;8.35;;;9.80;99.90;;;;;;5113872;28;20031;-76
2022/02/08 03:47:20;;;;;;;13.70;8.55;;;9.80;99.90;;;;;;5113831;28;20027;-76
2022/02/08 03:49:47;;;;;;;14.13;8.73;;;9.80;99.90;;;;;;5114081;28;20023;-76
2022/02/08 03:52:12;;;;;;;14.35;9.23;;;9.80;99.90;;;;;;5113818;28;20049;-76
2022/02/08 03:54:38;;;;;;;12.98;7.82;;;9.80;99.90;;;;;;5113979;28;20088;-76
2022/02/08 03:57:07;;;;;;;12.52;8.00;;;9.70;99.90;;;;;;5113747;28;20077;-76
2022/02/08 03:59:33;;;;;;;12.40;7.82;;;9.70;99.90;;;;;;5113711;28;20015;-76
2022/02/08 04:07:17;;;;;;;11.60;7.40;;;9.70;99.90;;;;;;5113346;28;20055;-76
2022/02/08 04:09:43;;;;;;;11.32;7.88;;;9.70;99.90;;;;;;5112077;28;20024;-76
2022/02/08 04:12:25;;;;;;;14.10;8.65;;;9.70;99.90;;;;;;5113577;28;20016;-76
2022/02/08 04:15:15;;;;;;;12.65;8.38;;;9.70;99.90;;;;;;5112023;28;20058;-76
2022/02/08 04:17:54;;;;;;;13.82;8.02;;;9.70;99.90;;;;;;5113598;28;20031;-76
2022/02/08 04:34:20;;;;;;;8.18;5.03;;;9.70;99.90;;;;;;5113668;28;20046;-76
2022/02/08 04:37:09;;;;;;;7.70;3.95;;;9.70;99.90;;;;;;5113468;28;20024;-76
2022/02/08 04:42:59;;;;;;;9.20;4.72;;;9.70;99.90;;;;;;5112997;28;20083;-75
2022/02/08 04:45:42;;;;;;;7.60;4.30;;;9.70;99.90;;;;;;5104662;28;20039;-76
2022/02/08 04:47:47;;;;;;;7.88;4.28;;;9.70;99.90;;;;;;5102247;28;20035;-76
2022/02/08 04:50:16;;;;;;;7.03;3.80;;;9.80;99.90;;;;;;5111654;28;20162;-76
2022/02/08 04:52:42;;;;;;;6.75;3.75;;;9.70;99.90;;;;;;5111929;28;20030;-76
2022/02/08 04:58:09;;;;;;;7.10;4.30;;;9.70;99.90;;;;;;5117621;28;20028;-76
2022/02/08 05:00:45;;;;;;;6.28;4.05;;;9.70;99.90;;;;;;5117312;27;20026;-76
2022/02/08 05:28:57;;;;;;;8.00;4.43;;;9.70;99.90;;;;;;5094746;28;20038;-76
2022/02/08 05:44:44;;;;;;;6.80;3.97;;;9.70;99.90;;;;;;5116341;28;20094;-76
2022/02/08 05:47:10;;;;;;;6.32;3.88;;;9.70;99.90;;;;;;5116459;28;20389;-76
2022/02/08 05:49:42;;;;;;;7.40;4.20;;;9.70;99.90;;;;;;5116068;28;20389;-76
2022/02/08 05:54:38;;;;;;;6.72;4.20;;;9.70;99.90;;;;;;5116214;28;20484;-76
2022/02/08 05:57:04;;;;;;;7.10;4.43;;;9.70;99.90;;;;;;5115905;28;20028;-76
2022/02/08 05:59:30;;;;;;;7.38;3.85;;;9.80;99.90;;;;;;5115805;28;20094;-76
2022/02/08 06:01:56;;;;;;;7.20;4.03;;;9.80;99.90;;;;;;5116347;28;20062;-76
2022/02/08 06:04:21;;;;;;;6.65;3.97;;;9.80;99.90;;;;;;5115334;28;20527;-76
2022/02/08 06:06:48;;;;;;;5.93;3.80;;;9.70;99.90;;;;;;5115384;28;20101;-76
2022/02/08 06:09:14;;;;;;;6.35;3.70;;;9.70;99.90;;;;;;5115615;28;20020;-76
2022/02/08 06:11:40;;;;;;;5.95;3.47;;;9.70;99.90;;;;;;5115576;28;20084;-76
2022/02/08 06:14:06;;;;;;;6.60;3.88;;;9.70;99.90;;;;;;5115844;28;20106;-76
2022/02/08 06:16:33;;;;;;;8.15;3.90;;;9.70;99.90;;;;;;5115486;28;20043;-76
2022/02/08 06:18:59;;;;;;;7.45;4.50;;;9.70;99.90;;;;;;5115476;28;20480;-76
2022/02/08 06:21:24;;;;;;;6.90;3.85;;;9.60;99.90;;;;;;5115434;28;20035;-76
2022/02/08 06:23:50;;;;;;;7.03;4.28;;;9.70;99.90;;;;;;5115526;28;20024;-76
2022/02/08 06:26:18;;;;;;;6.00;3.78;;;9.70;99.90;;;;;;5115295;28;20050;-76
2022/02/08 06:28:46;;;;;;;6.65;3.40;;;9.70;99.90;;;;;;5115556;28;20044;-76
2022/02/08 06:31:12;;;;;;;5.57;3.00;;;9.70;99.90;;;;;;5115243;28;20156;-76
2022/02/08 06:33:37;;;;;;;6.07;3.70;;;9.70;99.90;;;;;;5115446;28;20061;-76
2022/02/08 06:36:03;;;;;;;17.42;10.05;;;9.70;99.90;;;;;;5115134;28;20027;-75
2022/02/08 06:38:29;;;;;;;26.13;16.15;;;9.80;99.90;;;;;;5115662;28;20026;-76
2022/02/08 06:40:55;;;;;;;24.70;13.95;;;9.70;99.90;;;;;;5115066;28;20112;-76
2022/02/08 06:43:21;;;;;;;9.02;6.18;;;9.70;99.90;;;;;;5115218;28;20404;-76
2022/02/08 06:45:47;;;;;;;8.13;5.03;;;9.70;99.90;;;;;;5115005;28;20019;-76
2022/02/08 06:48:13;;;;;;;6.25;3.90;;;9.80;99.90;;;;;;5113668;28;20024;-76
2022/02/08 06:50:39;;;;;;;6.72;3.90;;;9.80;99.90;;;;;;5114878;28;20015;-76
2022/02/08 06:53:05;;;;;;;6.75;3.95;;;9.80;99.90;;;;;;5114787;28;20497;-76
2022/02/08 06:55:31;;;;;;;7.97;4.78;;;9.80;99.90;;;;;;5114713;28;20416;-76
2022/02/08 06:58:04;;;;;;;9.23;5.65;;;9.80;99.90;;;;;;5114629;28;20020;-76
2022/02/08 07:00:35;;;;;;;10.07;5.90;;;9.70;99.90;;;;;;5114957;28;20457;-76
2022/02/08 07:03:06;;;;;;;9.27;5.47;;;9.70;99.90;;;;;;5114383;28;20082;-76
2022/02/08 07:05:32;;;;;;;10.38;5.88;;;9.70;99.90;;;;;;5114829;28;20032;-76
2022/02/08 07:07:58;;;;;;;10.00;6.88;;;9.60;99.90;;;;;;5114489;28;20044;-76
2022/02/08 07:10:25;;;;;;;10.25;6.82;;;9.70;99.90;;;;;;5114434;28;20023;-76
2022/02/08 07:12:51;;;;;;;23.30;15.95;;;9.70;99.90;;;;;;5114405;28;20020;-76
2022/02/08 07:15:18;;;;;;;9.55;5.68;;;9.70;99.90;;;;;;5114359;28;20064;-76
2022/02/08 07:17:44;;;;;;;12.85;8.65;;;9.70;99.90;;;;;;5112236;28;20023;-76
2022/02/08 07:20:10;;;;;;;11.07;7.60;;;9.70;99.90;;;;;;5114537;28;20026;-76
2022/02/08 07:22:36;;;;;;;7.90;4.70;;;9.70;99.90;;;;;;5114265;28;20104;-76
2022/02/08 07:25:03;;;;;;;9.88;6.70;;;9.70;99.90;;;;;;5114140;28;20434;-75
2022/02/08 07:27:29;;;;;;;10.63;7.00;;;9.60;99.90;;;;;;5114116;28;20393;-76
2022/02/08 07:29:55;;;;;;;8.18;4.40;;;9.70;99.90;;;;;;5114355;28;20377;-76
2022/02/08 07:32:33;;;;;;;10.25;7.50;;;9.70;99.90;;;;;;5114029;28;20020;-76
2022/02/08 07:35:49;;;;;;;12.07;9.48;;;9.70;99.90;;;;;;5112470;28;20108;-76
2022/02/08 07:40:16;;;;;;;10.13;6.55;;;9.70;99.90;;;;;;5114799;28;20024;-76
2022/02/08 07:42:42;;;;;;;7.47;3.95;;;9.70;99.90;;;;;;5114207;27;20027;-76
2022/02/08 07:45:08;;;;;;;8.40;4.78;;;9.70;99.90;;;;;;5114052;28;20384;-76
2022/02/08 07:47:33;;;;;;;8.10;4.75;;;9.60;99.90;;;;;;5113848;28;20024;-76
2022/02/08 07:49:59;;;;;;;6.20;3.97;;;9.60;99.90;;;;;;5114349;28;20019;-76
2022/02/08 07:52:25;;;;;;;6.05;3.60;;;9.60;99.90;;;;;;5113770;28;20102;-76
2022/02/08 07:54:50;;;;;;;7.03;4.20;;;9.70;99.90;;;;;;5113694;28;20023;-76
2022/02/08 07:57:16;;;;;;;6.28;3.78;;;9.70;99.90;;;;;;5113691;28;20069;-76
2022/02/08 07:59:42;;;;;;;7.72;3.40;;;9.60;99.90;;;;;;5113898;28;20028;-76
2022/02/08 08:02:07;;;;;;;7.03;4.15;;;9.60;99.90;;;;;;5113886;28;20035;-76
2022/02/08 08:04:33;;;;;;;6.95;3.38;;;9.60;99.90;;;;;;5113091;28;20079;-76
2022/02/08 08:07:00;;;;;;;5.50;3.20;;;9.50;99.90;;;;;;5101254;28;20024;-77
2022/02/08 08:09:26;;;;;;;7.50;4.50;;;9.50;99.90;;;;;;5093487;28;20072;-75
2022/02/08 08:11:53;;;;;;;6.30;3.50;;;9.50;99.90;;;;;;5093663;28;20099;-78
2022/02/08 08:14:22;;;;;;;13.68;8.00;;;9.50;99.90;;;;;;5093355;28;20020;-76
2022/02/08 08:16:54;;;;;;;9.32;5.88;;;9.60;99.90;;;;;;5107337;28;20032;-73
2022/02/08 08:19:23;;;;;;;4.72;3.05;;;9.50;99.90;;;;;;5113523;28;20026;-78
2022/02/08 08:21:50;;;;;;;5.83;3.30;;;9.40;99.90;;;;;;5113503;28;20046;-74
2022/02/08 08:24:16;;;;;;;6.40;3.17;;;9.50;99.90;;;;;;5111598;28;20035;-76
2022/02/08 08:26:42;;;;;;;6.32;4.05;;;9.50;99.90;;;;;;5112939;28;20381;-77
2022/02/08 08:29:08;;;;;;;8.43;6.68;;;9.50;99.90;;;;;;5115621;28;20023;-78
2022/02/08 08:31:34;;;;;;;4.15;2.40;;;9.50;99.90;;;;;;5101090;28;20024;-76
2022/02/08 08:34:00;;;;;;;4.57;2.67;;;9.60;99.90;;;;;;5116955;28;20027;-78
2022/02/08 08:36:28;;;;;;;8.55;5.82;;;9.70;99.90;;;;;;5117416;28;20020;-75
2022/02/08 08:38:54;;;;;;;4.95;3.00;;;9.70;99.90;;;;;;5101127;28;20405;-76
2022/02/08 08:41:40;;;;;;;6.32;2.88;;;9.80;99.90;;;;;;5109058;28;20020;-79
2022/02/08 08:52:42;;;;;;;5.57;3.15;;;9.80;99.90;;;;;;5065399;28;20017;-75
2022/02/08 08:55:10;;;;;;;5.18;3.15;;;9.90;99.90;;;;;;5057581;28;20033;-73
2022/02/08 08:57:35;;;;;;;4.15;2.50;;;9.90;99.90;;;;;;5075775;28;20047;-76
2022/02/08 09:00:07;;;;;;;3.22;2.05;;;9.80;99.90;;;;;;5096910;28;20020;-77
2022/02/08 09:02:33;;;;;;;3.38;2.15;;;9.80;99.90;;;;;;5096098;28;20111;-75
2022/02/08 09:04:58;;;;;;;3.83;2.45;;;9.70;99.90;;;;;;5094927;28;20115;-77
2022/02/08 09:07:25;;;;;;;4.47;2.55;;;9.80;99.90;;;;;;5111992;28;20515;-76
2022/02/08 09:10:01;;;;;;;3.90;2.28;;;9.80;99.90;;;;;;5100835;28;20542;-79
2022/02/08 09:12:53;;;;;;;5.93;3.08;;;9.80;99.90;;;;;;5117125;28;20016;-75
2022/02/08 09:25:54;;;;;;;3.60;2.25;;;9.70;99.90;;;;;;5109602;28;20088;-75
2022/02/08 09:30:50;;;;;;;2.70;1.92;;;9.90;99.90;;;;;;5096612;28;20059;-76
2022/02/08 09:33:16;;;;;;;4.07;2.58;;;9.90;99.90;;;;;;5095838;28;20077;-76
2022/02/08 09:35:43;;;;;;;6.28;2.33;;;9.90;99.90;;;;;;5105461;28;20036;-76
2022/02/08 09:38:09;;;;;;;4.88;3.20;;;9.90;99.90;;;;;;5116320;28;20027;-76
2022/02/08 09:40:35;;;;;;;3.60;2.58;;;9.80;99.90;;;;;;5101707;28;20077;-77
2022/02/08 09:43:04;;;;;;;7.20;4.80;;;9.70;99.90;;;;;;5114131;28;20575;-76
2022/02/08 09:45:32;;;;;;;6.50;4.50;;;9.70;99.90;;;;;;5116179;28;20030;-76
2022/02/08 09:48:03;;;;;;;8.63;6.60;;;9.80;99.90;;;;;;5115367;27;20015;-79
2022/02/08 09:50:32;;;;;;;;;;;9.90;99.90;;;;;;5117098;28;20031;-76
2022/02/08 09:53:01;;;;;;;4.95;2.70;;;9.90;99.90;;;;;;5111021;28;19908;-76
2022/02/08 09:55:36;;;;;;;4.68;2.50;;;9.80;99.90;;;;;;5102704;28;20024;-76
2022/02/08 09:58:02;;;;;;;21.75;17.75;;;9.80;99.90;;;;;;5116248;28;20088;-74
2022/02/08 10:00:28;;;;;;;13.27;8.73;;;9.80;99.90;;;;;;5094945;28;20498;-77
2022/02/08 10:03:08;;;;;;;10.57;4.00;;;9.80;99.90;;;;;;5094947;28;20050;-78
2022/02/08 10:05:39;;;;;;;7.00;3.70;;;9.90;99.90;;;;;;5095989;28;20027;-76
2022/02/08 10:08:06;;;;;;;12.32;9.55;;;9.90;99.90;;;;;;5099518;28;20562;-81
2022/02/08 10:10:32;;;;;;;8.98;6.30;;;9.80;99.90;;;;;;5095529;28;20031;-75
2022/02/08 10:23:58;;;;;;;5.63;3.45;;;9.90;99.90;;;;;;5112674;28;20035;-78
2022/02/08 10:26:32;;;;;;;7.13;3.80;;;9.90;99.90;;;;;;5114065;28;20019;-78
2022/02/08 10:29:03;;;;;;;6.25;3.50;;;10.00;99.90;;;;;;5096318;28;20410;-78
2022/02/08 10:40:09;;;;;;;2.60;1.65;;;10.40;99.90;;;;;;5094562;28;20081;-80
2022/02/08 10:42:36;;;;;;;2.50;1.95;;;10.40;99.90;;;;;;5093226;28;20060;-76
2022/02/08 10:45:03;;;;;;;7.78;4.18;;;10.50;99.90;;;;;;5093962;28;20032;-78
2022/02/08 10:47:34;;;;;;;4.25;2.47;;;10.50;99.90;;;;;;5099957;28;20103;-77
2022/02/08 10:50:01;;;;;;;3.78;2.25;;;10.40;99.90;;;;;;5098505;28;20462;-78
2022/02/08 10:52:28;;;;;;;4.35;2.75;;;10.50;99.90;;;;;;5094713;28;20024;-78
2022/02/08 10:54:57;;;;;;;1.85;1.45;;;10.50;99.90;;;;;;5107027;28;20027;-74
2022/02/08 10:57:32;;;;;;;1.85;1.20;;;10.50;99.90;;;;;;5093272;28;20566;-78
2022/02/08 11:00:03;;;;;;;5.35;3.30;;;10.40;99.90;;;;;;5094320;28;20027;-80
2022/02/08 11:02:41;;;;;;;2.65;1.50;;;10.40;99.90;;;;;;5094359;28;20020;-77
2022/02/08 11:05:27;;;;;;;10.25;6.55;;;10.40;99.90;;;;;;5110983;28;20020;-77
2022/02/08 11:08:14;;;;;;;6.80;3.85;;;10.50;99.90;;;;;;5095265;27;20490;-75
2022/02/08 11:21:01;;;;;;;13.73;9.43;;;10.30;99.90;;;;;;5106797;28;20023;-79
2022/02/08 11:23:47;;;;;;;9.52;6.28;;;10.20;99.90;;;;;;5113870;28;20015;-79
2022/02/08 11:26:35;;;;;;;9.48;6.03;;;10.30;99.90;;;;;;5113794;28;20036;-75
2022/02/08 11:29:21;;;;;;;6.60;3.72;;;10.30;99.90;;;;;;5113960;28;20016;-76
2022/02/08 11:32:18;;;;;;;9.07;4.50;;;10.30;99.90;;;;;;5113992;28;20119;-75
2022/02/08 11:43:53;;;;;;;12.02;7.78;;;10.30;99.90;;;;;;5114177;28;20036;-75
2022/02/08 12:05:09;;;;;;;11.32;6.13;;;10.50;99.90;;;;;;5112691;28;20096;-75
2022/02/08 12:07:46;;;;;;;12.77;5.72;;;10.50;99.90;;;;;;5113987;28;20024;-75
2022/02/08 12:10:40;;;;;;;12.43;7.05;;;10.50;99.90;;;;;;5113903;28;20499;-75
2022/02/08 12:50:05;;;;;;;13.85;8.27;;;10.80;99.90;;;;;;5113500;28;20432;-76
2022/02/08 13:00:09;;;;;;;12.98;7.32;;;11.10;99.90;;;;;;5113464;28;20024;-75
2022/02/08 14:19:50;;;;;;;6.07;3.17;;;11.20;99.90;;;;;;5115287;28;20096;-76
2022/02/08 14:22:34;;;;;;;5.30;3.65;;;11.10;99.90;;;;;;5115537;28;20031;-74
2022/02/08 14:30:25;;;;;;;6.38;4.03;;;11.00;99.90;;;;;;5115527;28;20508;-76
2022/02/08 14:33:10;;;;;;;7.85;4.65;;;11.00;99.90;;;;;;5113675;28;20065;-75
2022/02/08 14:35:58;;;;;;;6.80;4.45;;;11.10;99.90;;;;;;5115165;28;20024;-77
2022/02/08 14:58:03;;;;;;;10.82;6.90;;;11.00;99.90;;;;;;5114465;28;20046;-75
2022/02/08 15:10:54;;;;;;;11.82;7.05;;;11.00;99.90;;;;;;5114769;28;20106;-74
2022/02/08 15:13:23;;;;;;;12.63;7.20;;;11.00;99.90;;;;;;5113119;28;20023;-74
2022/02/08 15:18:18;;;;;;;11.13;6.75;;;11.00;99.90;;;;;;5114609;28;20034;-75
2022/02/08 15:20:43;;;;;;;10.75;6.32;;;11.00;99.90;;;;;;5114616;28;20015;-75
2022/02/08 15:23:11;;;;;;;11.13;6.93;;;11.00;99.90;;;;;;5114217;28;20477;-75
2022/02/08 15:25:37;;;;;;;11.32;6.43;;;11.10;99.90;;;;;;5114227;28;20366;-74
2022/02/08 15:28:05;;;;;;;10.77;6.13;;;11.10;99.90;;;;;;5114132;28;20393;-74
2022/02/08 15:30:33;;;;;;;10.52;5.93;;;11.10;99.90;;;;;;5112806;28;20096;-74
2022/02/08 15:32:59;;;;;;;9.90;6.28;;;11.10;99.90;;;;;;5114353;28;20019;-75
2022/02/08 15:35:25;;;;;;;10.05;6.85;;;11.20;99.90;;;;;;5114314;28;20393;-76
2022/02/08 15:37:51;;;;;;;12.07;6.80;;;11.20;99.90;;;;;;5113365;28;20035;-75
2022/02/08 15:40:20;;;;;;;12.35;7.45;;;11.10;99.90;;;;;;5114251;28;20052;-76
2022/02/08 15:42:48;;;;;;;12.77;7.15;;;11.10;99.90;;;;;;5113928;28;20028;-77
2022/02/08 15:45:24;;;;;;;15.10;8.10;;;11.10;99.90;;;;;;5113834;28;20366;-76
2022/02/08 15:47:51;;;;;;;14.45;8.57;;;11.20;99.90;;;;;;5112355;28;20024;-76
2022/02/08 15:50:26;;;;;;;14.13;7.70;;;11.20;99.90;;;;;;5113866;28;20050;-75
2022/02/08 15:58:24;;;;;;;10.38;6.07;;;11.10;99.90;;;;;;5090335;28;20048;-74
2022/02/08 16:14:10;;;;;;;13.05;8.77;;;11.30;99.90;;;;;;5114127;28;20111;-76
2022/02/08 16:25:36;;;;;;;10.95;6.60;;;11.10;99.90;;;;;;5113557;28;20034;-75
2022/02/08 16:27:47;;;;;;;12.07;6.20;;;11.20;99.90;;;;;;5105826;28;20127;-76
2022/02/08 16:57:33;;;;;;;11.93;6.63;;;11.20;99.90;;;;;;5117380;28;20077;-74
2022/02/08 16:59:45;;;;;;;29.55;19.10;;;11.10;99.90;;;;;;5114882;28;20043;-76
2022/02/08 17:02:16;;;;;;;13.50;7.32;;;11.10;99.90;;;;;;5117093;27;20027;-75
2022/02/08 17:04:42;;;;;;;17.85;10.50;;;11.00;99.90;;;;;;5116751;28;20081;-75
2022/02/08 17:07:08;;;;;;;15.07;9.73;;;11.00;99.90;;;;;;5116661;27;20043;-75
2022/02/08 17:12:07;;;;;;;12.50;6.65;;;11.00;99.90;;;;;;5116817;28;20024;-75
2022/02/08 17:49:37;;;;;;;13.07;7.53;;;10.90;99.90;;;;;;5092485;28;20028;-76
2022/02/08 17:52:03;;;;;;;17.45;8.65;;;10.90;99.90;;;;;;5116353;28;20077;-75
2022/02/08 17:54:29;;;;;;;13.93;8.10;;;10.90;99.90;;;;;;5116000;28;20122;-75
2022/02/08 17:56:57;;;;;;;14.60;8.48;;;11.00;99.90;;;;;;5115952;28;20121;-74
2022/02/08 17:59:24;;;;;;;15.60;10.10;;;11.00;99.90;;;;;;5115974;28;20023;-75
2022/02/08 18:01:53;;;;;;;12.73;7.38;;;11.00;99.90;;;;;;5115455;28;20030;-76
2022/02/08 18:04:19;;;;;;;16.65;7.18;;;11.00;99.90;;;;;;5115624;28;20036;-75
2022/02/08 18:06:45;;;;;;;13.85;7.38;;;11.10;99.90;;;;;;5116340;28;20016;-73
2022/02/08 18:09:18;;;;;;;12.20;7.15;;;11.00;99.90;;;;;;5115743;28;20011;-74
2022/02/08 18:11:44;;;;;;;13.55;8.38;;;11.00;99.90;;;;;;5115725;28;20015;-74
2022/02/08 18:14:14;;;;;;;16.80;8.63;;;11.00;99.90;;;;;;5115924;28;20032;-74
2022/02/08 18:16:40;;;;;;;15.68;8.95;;;11.00;99.90;;;;;;5115700;28;20028;-77
2022/02/08 18:19:17;;;;;;;24.90;13.95;;;10.90;99.90;;;;;;5115795;28;20035;-75
2022/02/08 18:21:53;;;;;;;36.30;19.65;;;10.90;99.90;;;;;;5115817;28;20096;-76
2022/02/08 19:07:39;;;;;;;22.25;13.05;;;10.70;99.90;;;;;;5114854;28;20031;-75
2022/02/08 19:12:42;;;;;;;25.92;15.27;;;10.70;99.90;;;;;;5113962;28;20505;-74
2022/02/08 19:15:39;;;;;;;19.73;11.65;;;10.70;99.90;;;;;;5114674;28;20110;-76
2022/02/08 19:20:55;;;;;;;18.27;10.45;;;10.30;99.90;;;;;;5114406;28;20104;-74
2022/02/08 19:23:20;;;;;;;15.88;9.23;;;10.10;99.90;;;;;;5114875;28;20068;-74
2022/02/08 19:25:46;;;;;;;20.33;13.05;;;10.10;99.90;;;;;;5114545;28;20031;-75
2022/02/08 19:28:12;;;;;;;22.50;13.70;;;10.10;99.90;;;;;;5114519;28;20099;-74
2022/02/08 19:30:37;;;;;;;34.03;19.33;;;10.00;99.90;;;;;;5114128;28;20046;-75
2022/02/08 19:33:03;;;;;;;33.38;19.92;;;9.90;99.90;;;;;;5114071;28;20094;-76
2022/02/08 19:35:29;;;;;;;30.23;17.10;;;9.80;99.90;;;;;;5114064;28;20072;-74
2022/02/08 19:37:55;;;;;;;31.05;20.27;;;10.00;99.90;;;;;;5114036;28;20023;-74
2022/02/08 19:40:23;;;;;;;23.40;13.30;;;10.10;99.90;;;;;;5114274;28;20470;-74
2022/02/08 19:42:48;;;;;;;23.70;14.32;;;10.00;99.90;;;;;;5112693;28;20389;-75
2022/02/08 19:45:22;;;;;;;19.05;11.38;;;10.00;99.90;;;;;;5113837;28;20032;-74
2022/02/08 19:47:49;;;;;;;20.00;11.60;;;9.70;99.90;;;;;;5114209;28;20469;-74
2022/02/08 19:50:15;;;;;;;38.35;24.88;;;9.70;99.90;;;;;;5113834;28;20019;-74
2022/02/08 19:52:43;;;;;;;21.45;12.60;;;9.60;99.90;;;;;;5113855;28;20038;-76
2022/02/08 19:57:37;;;;;;;35.45;20.98;;;9.50;99.90;;;;;;5113747;28;20047;-75
2022/02/08 20:00:07;;;;;;;20.88;12.80;;;9.50;99.90;;;;;;5113752;28;20460;-75
2022/02/08 20:02:40;;;;;;;21.17;12.90;;;9.50;99.90;;;;;;5114021;28;20023;-74
2022/02/08 20:05:06;;;;;;;23.67;12.20;;;9.70;99.90;;;;;;5113635;28;20036;-75
2022/02/08 20:07:32;;;;;;;21.67;13.05;;;9.90;99.90;;;;;;5113655;28;20107;-74
2022/02/08 20:09:57;;;;;;;20.25;11.57;;;10.00;99.90;;;;;;5113855;28;20027;-75
2022/02/08 20:12:23;;;;;;;21.30;12.75;;;9.80;99.90;;;;;;5113853;28;20063;-76
2022/02/08 20:14:48;;;;;;;21.88;13.35;;;9.80;99.90;;;;;;5113539;28;20545;-74
2022/02/08 20:17:14;;;;;;;21.95;12.15;;;9.80;99.90;;;;;;5113499;28;20024;-76
2022/02/08 20:19:40;;;;;;;19.75;10.68;;;9.80;99.90;;;;;;5113484;28;20020;-75
2022/02/08 20:22:07;;;;;;;21.65;12.48;;;9.80;99.90;;;;;;5114046;28;20027;-76
2022/02/08 20:24:33;;;;;;;22.17;13.48;;;9.80;99.90;;;;;;5114683;28;20024;-76
2022/02/08 20:29:31;;;;;;;20.33;12.52;;;10.00;99.90;;;;;;5117963;28;20080;-73
2022/02/08 20:31:57;;;;;;;20.25;11.50;;;10.00;99.90;;;;;;5117572;28;20016;-75
2022/02/08 20:34:27;;;;;;;20.33;13.13;;;10.10;99.90;;;;;;5118020;28;20152;-73
2022/02/08 20:36:55;;;;;;;17.98;10.98;;;9.90;99.90;;;;;;5117569;28;20034;-76
2022/02/08 20:39:21;;;;;;;17.92;10.20;;;9.90;99.90;;;;;;5117483;28;20106;-74
2022/02/08 20:41:47;;;;;;;17.33;10.70;;;9.80;99.90;;;;;;5117502;28;20503;-74
2022/02/08 20:44:16;;;;;;;19.27;11.57;;;9.80;99.90;;;;;;5117633;27;20103;-75
2022/02/08 20:46:53;;;;;;;19.05;10.95;;;9.80;99.90;;;;;;5116137;28;20035;-74
2022/02/08 20:49:18;;;;;;;18.23;10.77;;;9.90;99.90;;;;;;5115798;28;20077;-75
2022/02/08 20:51:46;;;;;;;17.73;10.68;;;9.90;99.90;;;;;;5117186;28;20028;-75
2022/02/08 20:54:14;;;;;;;19.88;11.95;;;9.80;99.90;;;;;;5117186;28;20024;-75